Etusivu
METAR-TAF:

METAR-TAF

Lentoasemat :

Bahrainin kansainvälinen lentoasema

Bahrain, Bahrain

Leveyspiiri: 26-16N, Pituuspiiri: 050-39E, korkeus merenpinnasta: 2 m

Tämänhetkinen sää

Tämä raportti tehtiin 33 minuuttia sitten, kello 21.00 UTC
Tuuli 2 kn luoteesta
Lämpötila 30°C
Kosteus 62%
Ilmanpaine 1012 hPa
Näkyvyys: 5000 m
selkeää
usvaa

METAR: OBBI 162100Z 31002KT 5000 HZ SKC 30/22 Q1012 NOSIG

Aika: 00:33 (21:33 UTC)

Sääennuste

Tämä raportti tehtiin 4 tuntia ja 33 minuuttia sitten, kello 17.00 UTC
Ennuste voimassa 16. päivästä klo 18 UTC - 18. päivään klo 00 UTC
Tuuli 5 kn eri suunnista
Näkyvyys: 8000 m
Todennäköisyys 30% :
Ajoittain
16. päivästä klo 18 UTC - 17. päivään klo 04 UTC
Näkyvyys: 4000 m
usvaa
Tulossa
17. päivästä klo 09 UTC - 17. päivään klo 11 UTC
Tuuli 10 kn idästä/koillisesta

TAF: OBBI 161700Z 1618/1800 VRB05KT 8000 NSC PROB30 TEMPO 1618/1704 4000 HZ BECMG 1709/1711 07010KT

Säähavainnot ja -ennusteet yli 4000 lentoasemalta (METAR- ja TAF-raportit).

Käytössä olevat sääasemat on merkitty karttaan keltaisilla ja punaisilla pisteillä.

Aseta hiiri pisteen päälle nähdäksesi sääaseman nimen.

Klikkaa sitten nähdäksesi säähavainnot ja -ennusteet.

Kartan vaihtaminen: klikkaa mustalla rastilla varustettuja vihreitä pisteitä, niin voit zoomata sisään; viivalla varustettua vihreää pistettä, niin voit zoomata ulos tai vihreitä nuolia, niin pääset viereisille kartoille.


METAR-TAF: